Weather at Kleine Brogel - EBBL


metar: EBBL 250455Z 07006KT 4500 BR FEW120 SCT220 11/10 Q1011 GRN GRN TEMPO YLO

12 minuten geleden, om 04:55 UTC, de wind blies met windsnelheden van 3.1 meter per seconde(6.9 mijl per uur) vanuit Oost-noordoost nabij Kleine Brogel. De temperatuur was 11 °C (52 °F), en de barometerdruk was 1,011 hPa (29.85 inHg). De relatieve vochtigheid was 93.5%. er was weinig bewolking op een hoogte van 3658 meter (12000 voet) en verspreide bewolking op een hoogte van 6706 meter (22000 voet). De zichtbaarheid was 4.5 kilometer (2.8 mijl). Het huidige weer is Gematigd Mist .

temperature image   windir image sky image 

Last 24 hour graph Kleine Brogel - EBBL